createdAt,value
2022-08-30T00:02:43.689Z,1.30
2022-08-30T00:05:11.123Z,1.60
2022-08-30T00:07:37.767Z,1.67
2022-08-30T00:10:04.870Z,1.65
2022-08-30T00:12:32.789Z,1.25
2022-08-30T00:14:59.629Z,1.83
2022-08-30T00:17:26.619Z,1.42
2022-08-30T00:19:56.008Z,1.70
2022-08-30T00:22:22.647Z,1.65
2022-08-30T00:24:49.693Z,1.60
2022-08-30T00:27:16.635Z,1.60
2022-08-30T00:29:43.338Z,1.70
2022-08-30T00:32:10.085Z,2.25
2022-08-30T00:34:36.658Z,1.45
2022-08-30T00:37:03.564Z,1.27
2022-08-30T00:39:30.148Z,2.28
2022-08-30T00:41:56.798Z,1.73
2022-08-30T00:44:24.227Z,1.92
2022-08-30T00:46:50.829Z,2.22
2022-08-30T00:49:18.042Z,1.98
2022-08-30T00:51:44.819Z,1.80
2022-08-30T00:54:12.419Z,1.77
2022-08-30T00:56:39.240Z,1.60
2022-08-30T00:59:07.849Z,1.15
2022-08-30T01:01:36.191Z,1.65
2022-08-30T01:04:05.851Z,2.15
2022-08-30T01:06:34.214Z,1.55
2022-08-30T01:09:03.000Z,1.75
2022-08-30T01:11:32.596Z,2.38
2022-08-30T01:13:59.918Z,2.00
2022-08-30T01:16:27.317Z,2.08
2022-08-30T01:19:17.436Z,2.08
2022-08-30T01:22:37.981Z,2.20
2022-08-30T01:25:08.216Z,2.20
2022-08-30T01:31:28.030Z,2.25
2022-08-30T01:33:54.635Z,1.90
2022-08-30T01:36:22.092Z,2.25
2022-08-30T01:41:37.077Z,3.10
2022-08-30T01:44:41.041Z,2.65
2022-08-30T01:47:07.732Z,2.05
2022-08-30T01:49:34.253Z,2.50
2022-08-30T01:52:01.596Z,2.78
2022-08-30T01:54:36.604Z,2.53
2022-08-30T01:57:20.963Z,2.40
2022-08-30T01:59:50.042Z,3.00
2022-08-30T02:02:43.940Z,3.05
2022-08-30T02:05:11.578Z,3.10
2022-08-30T02:10:48.985Z,2.90
2022-08-30T02:13:15.727Z,2.90
2022-08-30T02:15:42.458Z,2.70
2022-08-30T02:18:10.826Z,3.15
2022-08-30T02:20:39.555Z,3.28
2022-08-30T02:23:06.205Z,2.97
2022-08-30T02:25:32.778Z,3.30
2022-08-30T02:27:59.386Z,3.17
2022-08-30T02:30:26.766Z,3.45
2022-08-30T02:32:53.879Z,3.28
2022-08-30T02:35:20.618Z,3.53
2022-08-30T02:37:47.170Z,3.17
2022-08-30T02:40:14.144Z,3.97
2022-08-30T02:42:41.790Z,3.30
2022-08-30T02:45:08.887Z,3.30
2022-08-30T02:47:35.467Z,4.05
2022-08-30T02:50:07.098Z,4.00
2022-08-30T02:52:33.711Z,4.18
2022-08-30T02:55:00.254Z,4.50
2022-08-30T02:57:27.100Z,5.10
2022-08-30T02:59:53.669Z,5.47
2022-08-30T03:02:22.178Z,5.00
2022-08-30T03:04:49.368Z,5.20
2022-08-30T03:07:16.209Z,5.00
2022-08-30T03:09:42.830Z,5.88
2022-08-30T03:12:10.362Z,6.10
2022-08-30T03:14:38.835Z,6.32
2022-08-30T03:17:07.234Z,6.07
2022-08-30T03:19:54.238Z,6.38
2022-08-30T03:22:20.839Z,6.13
2022-08-30T03:24:47.339Z,5.82
2022-08-30T03:27:14.085Z,5.85
2022-08-30T03:29:40.820Z,5.65
2022-08-30T03:32:07.496Z,5.03
2022-08-30T03:34:34.257Z,5.53
2022-08-30T03:37:01.535Z,5.70
2022-08-30T03:39:28.876Z,5.47
2022-08-30T03:41:55.437Z,4.85
2022-08-30T03:44:22.083Z,5.10
2022-08-30T03:46:49.367Z,5.22
2022-08-30T03:49:16.184Z,5.30
2022-08-30T03:51:43.290Z,5.65
2022-08-30T03:54:10.115Z,4.97
2022-08-30T03:56:37.155Z,6.03
2022-08-30T03:59:04.227Z,6.05
2022-08-30T04:01:31.007Z,5.63
2022-08-30T04:03:57.720Z,5.40
2022-08-30T04:06:24.366Z,6.82
2022-08-30T04:08:52.018Z,5.57
2022-08-30T04:11:18.876Z,5.57
2022-08-30T04:13:45.496Z,4.95
2022-08-30T04:16:12.597Z,5.07
2022-08-30T04:18:39.284Z,5.13
2022-08-30T04:21:06.528Z,4.85
2022-08-30T04:23:33.506Z,4.63
2022-08-30T04:26:00.758Z,5.35
2022-08-30T04:28:27.387Z,5.13
2022-08-30T04:30:53.960Z,5.47
2022-08-30T04:33:21.094Z,5.00
2022-08-30T04:35:49.359Z,5.70
2022-08-30T04:38:17.334Z,5.68
2022-08-30T04:43:28.953Z,4.97
2022-08-30T04:45:57.955Z,4.68
2022-08-30T04:48:24.545Z,5.18
2022-08-30T04:50:51.099Z,5.47
2022-08-30T04:53:17.858Z,4.65
2022-08-30T04:55:44.549Z,5.28
2022-08-30T04:58:11.503Z,5.00
2022-08-30T05:00:38.355Z,5.07
2022-08-30T05:03:04.931Z,4.80
2022-08-30T05:08:46.696Z,5.15
2022-08-30T05:11:15.497Z,4.78
2022-08-30T05:13:42.102Z,5.50
2022-08-30T05:16:09.110Z,5.05
2022-08-30T05:18:37.118Z,4.53
2022-08-30T05:21:26.496Z,5.18
2022-08-30T05:24:00.939Z,4.13
2022-08-30T05:26:31.842Z,4.93
2022-08-30T05:29:19.071Z,4.72
2022-08-30T05:31:45.698Z,4.75
2022-08-30T05:34:12.259Z,5.53
2022-08-30T05:36:40.099Z,5.35
2022-08-30T05:39:09.111Z,4.78
2022-08-30T05:41:36.787Z,5.30
2022-08-30T05:44:05.193Z,5.53
2022-08-30T05:50:00.381Z,5.07
2022-08-30T05:52:27.311Z,5.18
2022-08-30T05:55:34.822Z,5.13
2022-08-30T05:58:01.901Z,4.57
2022-08-30T06:00:30.564Z,4.15
2022-08-30T06:02:57.385Z,4.95
2022-08-30T06:05:24.102Z,3.95
2022-08-30T06:07:50.970Z,3.88
2022-08-30T06:10:17.665Z,4.43
2022-08-30T06:12:44.316Z,4.82
2022-08-30T06:15:11.558Z,3.95
2022-08-30T06:17:39.707Z,3.72
2022-08-30T06:20:07.189Z,3.92
2022-08-30T06:22:33.811Z,4.15
2022-08-30T06:25:00.667Z,4.10
2022-08-30T06:27:27.252Z,3.90
2022-08-30T06:29:54.003Z,4.68
2022-08-30T06:32:20.774Z,4.30
2022-08-30T06:34:48.300Z,4.60
2022-08-30T06:37:29.881Z,4.57
2022-08-30T06:40:03.702Z,3.88
2022-08-30T06:42:33.426Z,4.10
2022-08-30T06:45:02.396Z,3.83
2022-08-30T06:47:29.888Z,3.92
2022-08-30T06:49:57.662Z,4.68
2022-08-30T06:52:24.508Z,4.68
2022-08-30T06:54:53.678Z,4.22
2022-08-30T06:57:20.223Z,4.07
2022-08-30T06:59:46.771Z,3.80
2022-08-30T07:02:13.330Z,4.35
2022-08-30T07:04:40.079Z,4.30
2022-08-30T07:07:06.732Z,4.13
2022-08-30T07:09:33.518Z,3.80
2022-08-30T07:12:06.669Z,4.05
2022-08-30T07:14:33.223Z,5.22
2022-08-30T07:16:59.805Z,3.40
2022-08-30T07:19:26.368Z,3.53
2022-08-30T07:21:52.962Z,3.50
2022-08-30T07:24:20.127Z,3.38
2022-08-30T07:30:01.157Z,3.33
2022-08-30T07:32:27.753Z,3.67
2022-08-30T07:34:55.489Z,3.50
2022-08-30T07:37:22.052Z,3.33
2022-08-30T07:39:48.588Z,3.15
2022-08-30T07:42:16.145Z,3.10
2022-08-30T07:44:43.743Z,3.70
2022-08-30T07:47:10.828Z,3.15
2022-08-30T07:49:37.901Z,3.05
2022-08-30T07:52:05.131Z,2.90
2022-08-30T07:54:35.086Z,2.67
2022-08-30T07:57:02.292Z,2.80
2022-08-30T07:59:31.794Z,2.47
2022-08-30T08:02:15.893Z,2.60
2022-08-30T08:04:43.939Z,2.25
2022-08-30T08:07:11.891Z,2.92
2022-08-30T08:09:38.973Z,3.45
2022-08-30T08:12:07.596Z,2.30
2022-08-30T08:14:34.382Z,2.97
2022-08-30T08:17:01.556Z,2.53
2022-08-30T08:19:28.484Z,1.70
2022-08-30T08:22:15.637Z,1.95
2022-08-30T08:24:44.160Z,2.03
2022-08-30T08:27:11.161Z,1.90
2022-08-30T08:29:37.750Z,2.35
2022-08-30T08:32:05.346Z,1.35
2022-08-30T08:34:32.307Z,2.30
2022-08-30T08:36:58.916Z,1.52
2022-08-30T08:39:25.580Z,1.98
2022-08-30T08:42:30.011Z,2.15
2022-08-30T08:45:21.243Z,2.40
2022-08-30T08:48:58.696Z,2.13
2022-08-30T08:55:29.795Z,1.95
2022-08-30T08:57:58.866Z,2.03
2022-08-30T09:00:25.561Z,1.98
2022-08-30T09:03:00.913Z,2.08
2022-08-30T09:08:18.530Z,2.53
2022-08-30T09:11:51.982Z,2.40
2022-08-30T09:14:36.268Z,2.25
2022-08-30T09:19:41.333Z,3.05
2022-08-30T09:22:23.462Z,2.35
2022-08-30T09:27:36.135Z,2.85
2022-08-30T09:30:50.497Z,3.30
2022-08-30T09:39:03.050Z,2.70
2022-08-30T09:45:49.832Z,2.67
2022-08-30T09:48:35.281Z,2.65
2022-08-30T09:51:11.143Z,2.53
2022-08-30T09:54:31.106Z,2.80
2022-08-30T09:57:38.202Z,1.98
2022-08-30T10:03:58.040Z,2.85
2022-08-30T10:06:55.515Z,2.38
2022-08-30T10:10:08.087Z,2.42
2022-08-30T10:13:06.077Z,2.50
2022-08-30T10:16:23.399Z,2.47
2022-08-30T10:19:29.780Z,2.40
2022-08-30T10:25:48.271Z,2.83
2022-08-30T10:29:02.132Z,1.85
2022-08-30T10:31:47.756Z,1.70
2022-08-30T10:34:55.770Z,2.30
2022-08-30T10:38:08.885Z,2.30
2022-08-30T10:44:06.007Z,2.72
2022-08-30T10:50:39.058Z,2.78
2022-08-30T10:54:18.930Z,2.65
2022-08-30T10:57:12.514Z,2.60
2022-08-30T11:07:57.705Z,2.10
2022-08-30T11:11:17.546Z,3.00
2022-08-30T11:13:45.782Z,2.10
2022-08-30T11:16:15.907Z,2.35
2022-08-30T11:19:02.798Z,2.03
2022-08-30T11:21:38.804Z,2.53
2022-08-30T11:25:02.417Z,2.50
2022-08-30T11:31:07.712Z,2.75
2022-08-30T11:33:59.214Z,2.88
2022-08-30T11:40:23.043Z,2.33
2022-08-30T11:43:29.782Z,2.20
2022-08-30T11:46:26.810Z,2.45
2022-08-30T11:49:02.471Z,2.10
2022-08-30T11:52:27.445Z,2.67
2022-08-30T11:55:40.092Z,2.58
2022-08-30T11:58:44.962Z,2.75
2022-08-30T12:01:40.784Z,3.05
2022-08-30T12:04:06.012Z,2.30
2022-08-30T12:07:52.084Z,2.50
2022-08-30T12:10:45.462Z,2.67
2022-08-30T12:14:02.918Z,2.90
2022-08-30T12:16:35.202Z,3.00
2022-08-30T12:19:52.887Z,2.30
2022-08-30T12:22:22.320Z,2.38
2022-08-30T12:24:52.157Z,2.70
2022-08-30T12:28:00.582Z,3.05
2022-08-30T12:30:43.914Z,2.35
2022-08-30T12:33:46.997Z,2.42
2022-08-30T12:36:50.007Z,2.53
2022-08-30T12:45:28.883Z,2.30
2022-08-30T12:47:58.704Z,2.00
2022-08-30T12:51:07.192Z,2.72
2022-08-30T12:54:45.378Z,2.70
2022-08-30T12:58:34.737Z,2.60
2022-08-30T13:01:16.265Z,3.38
2022-08-30T13:04:39.680Z,3.10
2022-08-30T13:07:06.642Z,3.25
2022-08-30T13:12:26.102Z,2.42
2022-08-30T13:15:18.577Z,2.90
2022-08-30T13:17:47.192Z,5.50
2022-08-30T13:20:16.528Z,4.00
2022-08-30T13:23:07.901Z,2.72
2022-08-30T13:25:38.201Z,3.38
2022-08-30T13:28:06.949Z,3.35
2022-08-30T13:30:34.352Z,3.25
2022-08-30T13:35:45.050Z,3.15
2022-08-30T13:38:11.672Z,3.35
2022-08-30T13:40:38.270Z,3.08
2022-08-30T13:43:04.941Z,2.60
2022-08-30T13:45:47.145Z,3.17
2022-08-30T13:48:25.059Z,2.53
2022-08-30T13:51:05.297Z,2.72
2022-08-30T13:56:19.553Z,2.65
2022-08-30T13:58:47.996Z,2.22
2022-08-30T14:01:14.663Z,2.63
2022-08-30T14:04:13.161Z,3.13
2022-08-30T14:06:33.915Z,2.63
2022-08-30T14:09:26.538Z,3.05
2022-08-30T14:11:53.125Z,2.50
2022-08-30T14:14:32.469Z,2.60
2022-08-30T14:17:06.693Z,2.25
2022-08-30T14:19:33.559Z,2.70
2022-08-30T14:22:00.132Z,2.75
2022-08-30T14:24:26.660Z,2.88
2022-08-30T14:26:53.299Z,3.47
2022-08-30T14:29:23.005Z,2.53
2022-08-30T14:32:10.298Z,2.38
2022-08-30T14:34:37.153Z,2.10
2022-08-30T14:37:06.704Z,1.60
2022-08-30T14:39:33.887Z,1.60
2022-08-30T14:42:03.511Z,2.33
2022-08-30T14:44:45.724Z,1.83
2022-08-30T14:47:17.750Z,1.67
2022-08-30T14:49:44.263Z,1.63
2022-08-30T14:52:10.838Z,1.88
2022-08-30T14:54:37.662Z,1.60
2022-08-30T14:57:04.368Z,1.92
2022-08-30T14:59:31.132Z,1.92
2022-08-30T15:01:57.898Z,1.88
2022-08-30T15:04:24.521Z,1.75
2022-08-30T15:06:52.095Z,1.30
2022-08-30T15:09:43.200Z,1.42
2022-08-30T15:12:09.961Z,2.35
2022-08-30T15:14:37.114Z,9.40
2022-08-30T15:17:05.538Z,1.80
2022-08-30T15:19:32.965Z,2.17
2022-08-30T15:22:02.585Z,1.50
2022-08-30T15:24:30.148Z,1.90
2022-08-30T15:26:59.534Z,2.55
2022-08-30T15:29:27.593Z,2.25
2022-08-30T15:32:14.186Z,2.13
2022-08-30T15:34:40.751Z,2.08
2022-08-30T15:37:07.873Z,2.25
2022-08-30T15:39:34.883Z,2.17
2022-08-30T15:42:02.142Z,2.40
2022-08-30T15:44:32.501Z,2.40
2022-08-30T15:47:05.206Z,2.47
2022-08-30T15:53:04.098Z,1.52
2022-08-30T15:56:24.699Z,1.65
2022-08-30T15:58:51.728Z,1.92
2022-08-30T16:01:30.423Z,1.80
2022-08-30T16:04:07.705Z,1.85
2022-08-30T16:06:37.599Z,2.20
2022-08-30T16:09:06.554Z,1.63
2022-08-30T16:11:34.154Z,1.88
2022-08-30T16:14:01.661Z,1.85
2022-08-30T16:16:28.531Z,2.05
2022-08-30T16:18:55.488Z,1.98
2022-08-30T16:21:48.086Z,2.30
2022-08-30T16:24:15.386Z,2.53
2022-08-30T16:26:43.462Z,2.03
2022-08-30T16:29:12.367Z,1.75
2022-08-30T16:31:44.482Z,2.08
2022-08-30T16:34:13.776Z,1.80
2022-08-30T16:36:40.465Z,1.73
2022-08-30T16:39:09.526Z,2.20
2022-08-30T16:41:37.678Z,2.28
2022-08-30T16:44:05.574Z,3.72
2022-08-30T16:46:34.064Z,2.40
2022-08-30T16:49:02.234Z,1.80
2022-08-30T16:51:30.617Z,2.05
2022-08-30T16:53:59.211Z,1.55
2022-08-30T16:56:27.340Z,2.08
2022-08-30T16:59:01.108Z,2.17
2022-08-30T17:01:44.753Z,2.33
2022-08-30T17:04:18.204Z,1.50
2022-08-30T17:07:01.334Z,2.05
2022-08-30T17:09:46.060Z,2.03
2022-08-30T17:12:13.538Z,4.40
2022-08-30T17:14:40.989Z,16.00
2022-08-30T17:17:27.505Z,1.75
2022-08-30T17:19:56.284Z,2.03
2022-08-30T17:22:22.826Z,1.95
2022-08-30T17:24:49.668Z,2.15
2022-08-30T17:27:16.514Z,1.60
2022-08-30T17:29:43.139Z,2.10
2022-08-30T17:32:09.794Z,1.30
2022-08-30T17:34:37.133Z,1.40
2022-08-30T17:37:04.121Z,1.83
2022-08-30T17:39:30.906Z,1.70
2022-08-30T17:41:58.428Z,1.70
2022-08-30T17:47:10.255Z,1.88
2022-08-30T17:49:36.864Z,1.95
2022-08-30T17:52:04.469Z,1.85
2022-08-30T17:54:33.348Z,2.25
2022-08-30T17:57:01.177Z,1.40
2022-08-30T17:59:29.306Z,1.75
2022-08-30T18:02:15.938Z,1.73
2022-08-30T18:05:03.158Z,2.45
2022-08-30T18:07:29.765Z,1.60
2022-08-30T18:09:57.643Z,1.63
2022-08-30T18:12:26.907Z,2.03
2022-08-30T18:14:54.203Z,1.80
2022-08-30T18:17:20.956Z,2.40
2022-08-30T18:19:47.589Z,2.03
2022-08-30T18:22:16.438Z,1.42
2022-08-30T18:24:43.353Z,1.40
2022-08-30T18:27:09.894Z,1.58
2022-08-30T18:29:38.009Z,1.33
2022-08-30T18:32:05.690Z,2.30
2022-08-30T18:34:51.878Z,1.70
2022-08-30T18:37:18.423Z,1.77
2022-08-30T18:39:45.705Z,2.55
2022-08-30T18:42:14.730Z,2.30
2022-08-30T18:44:43.632Z,2.83
2022-08-30T18:47:10.784Z,4.03
2022-08-30T18:49:37.799Z,2.45
2022-08-30T18:52:06.665Z,2.30
2022-08-30T18:55:12.046Z,4.38
2022-08-30T18:57:38.714Z,2.55
2022-08-30T19:00:05.965Z,3.85
2022-08-30T19:02:32.621Z,2.88
2022-08-30T19:04:59.299Z,2.90
2022-08-30T19:07:29.922Z,3.33
2022-08-30T19:10:16.444Z,2.92
2022-08-30T19:13:03.615Z,2.35
2022-08-30T19:15:34.207Z,2.92
2022-08-30T19:18:02.024Z,3.30
2022-08-30T19:20:50.382Z,4.47
2022-08-30T19:23:55.287Z,2.58
2022-08-30T19:26:22.056Z,3.90
2022-08-30T19:28:48.889Z,4.30
2022-08-30T19:31:15.522Z,4.38
2022-08-30T19:33:42.310Z,3.65
2022-08-30T19:36:08.967Z,3.22
2022-08-30T19:38:36.689Z,3.60
2022-08-30T19:41:04.626Z,3.55
2022-08-30T19:43:31.793Z,3.65
2022-08-30T19:45:59.996Z,16.55
2022-08-30T19:48:32.018Z,10.30
2022-08-30T19:51:15.659Z,6.80
2022-08-30T19:53:43.209Z,5.90
2022-08-30T19:56:10.166Z,5.78
2022-08-30T19:58:36.999Z,5.15
2022-08-30T20:01:10.806Z,3.97
2022-08-30T20:03:51.936Z,3.78
2022-08-30T20:06:20.513Z,3.95
2022-08-30T20:08:47.466Z,3.75
2022-08-30T20:11:19.733Z,4.22
2022-08-30T20:13:47.572Z,3.72
2022-08-30T20:16:15.070Z,3.35
2022-08-30T20:18:43.271Z,4.10
2022-08-30T20:21:13.445Z,4.95
2022-08-30T20:24:01.003Z,4.47
2022-08-30T20:26:33.753Z,5.50
2022-08-30T20:29:14.974Z,10.95
2022-08-30T20:31:41.553Z,5.72
2022-08-30T20:34:08.500Z,4.50
2022-08-30T20:36:35.022Z,4.55
2022-08-30T20:39:02.268Z,4.10
2022-08-30T20:41:32.073Z,4.53
2022-08-30T20:43:59.700Z,4.22
2022-08-30T20:46:28.565Z,6.00
2022-08-30T20:49:13.900Z,4.55
2022-08-30T20:51:41.156Z,3.85
2022-08-30T20:54:09.010Z,3.85
2022-08-30T20:56:36.104Z,5.00
2022-08-30T20:59:04.269Z,4.40
2022-08-30T21:02:01.477Z,4.63
2022-08-30T21:04:28.808Z,4.80
2022-08-30T21:06:55.311Z,4.43
2022-08-30T21:09:22.102Z,4.50
2022-08-30T21:11:48.818Z,4.65
2022-08-30T21:14:15.457Z,5.05
2022-08-30T21:16:42.130Z,4.55
2022-08-30T21:19:08.816Z,4.45
2022-08-30T21:21:35.451Z,4.72
2022-08-30T21:27:15.312Z,3.80
2022-08-30T21:29:42.106Z,3.20
2022-08-30T21:32:08.698Z,3.00
2022-08-30T21:37:45.596Z,3.45
2022-08-30T21:40:14.941Z,3.15
2022-08-30T21:42:41.996Z,3.20
2022-08-30T21:45:09.016Z,3.35
2022-08-30T21:47:35.676Z,3.95
2022-08-30T21:50:02.339Z,3.42
2022-08-30T21:52:28.877Z,4.30
2022-08-30T21:54:55.574Z,3.88
2022-08-30T21:57:22.158Z,3.90
2022-08-30T21:59:48.688Z,3.60
2022-08-30T22:02:15.230Z,3.25
2022-08-30T22:04:41.830Z,3.55
2022-08-30T22:07:08.529Z,3.10
2022-08-30T22:09:35.651Z,4.00
2022-08-30T22:14:46.499Z,3.13
2022-08-30T22:17:13.090Z,3.58
2022-08-30T22:19:39.623Z,4.07
2022-08-30T22:22:06.608Z,3.55
2022-08-30T22:24:33.204Z,4.10
2022-08-30T22:27:01.857Z,7.00
2022-08-30T22:29:29.288Z,6.97
2022-08-30T22:31:56.549Z,4.13
2022-08-30T22:34:23.135Z,3.28
2022-08-30T22:36:49.669Z,3.85
2022-08-30T22:39:16.295Z,3.88
2022-08-30T22:41:44.170Z,3.33
2022-08-30T22:44:11.962Z,3.97
2022-08-30T22:46:38.689Z,3.58
2022-08-30T22:49:06.963Z,3.88
2022-08-30T22:51:33.990Z,3.55
2022-08-30T22:54:02.027Z,4.65
2022-08-30T22:56:29.377Z,3.47
2022-08-30T22:58:56.543Z,4.22
2022-08-30T23:01:57.787Z,3.92
2022-08-30T23:04:24.575Z,3.70
2022-08-30T23:06:52.384Z,4.32
2022-08-30T23:09:18.986Z,3.75
2022-08-30T23:11:45.494Z,3.72
2022-08-30T23:14:12.050Z,4.05
2022-08-30T23:16:38.631Z,3.75
2022-08-30T23:19:05.586Z,3.42
2022-08-30T23:21:32.333Z,3.38
2022-08-30T23:24:24.512Z,3.72
2022-08-30T23:30:23.013Z,3.35
2022-08-30T23:46:04.070Z,3.38
2022-08-30T23:48:52.455Z,3.15
